sensor_id;sensor_type;location;lat;lon;timestamp;P1;durP1;ratioP1;P2;durP2;ratioP2
5285;SDS011;2665;53.112;7.358;2023-02-13T00:00:09;5.23;;;3.10;;
5285;SDS011;2665;53.112;7.358;2023-02-13T00:02:35;7.80;;;3.83;;
5285;SDS011;2665;53.112;7.358;2023-02-13T00:05:01;6.07;;;3.63;;
5285;SDS011;2665;53.112;7.358;2023-02-13T00:07:27;4.90;;;2.80;;
5285;SDS011;2665;53.112;7.358;2023-02-13T00:09:53;4.37;;;2.13;;
5285;SDS011;2665;53.112;7.358;2023-02-13T00:12:19;4.60;;;2.80;;
5285;SDS011;2665;53.112;7.358;2023-02-13T00:14:45;4.53;;;2.57;;
5285;SDS011;2665;53.112;7.358;2023-02-13T00:17:11;7.70;;;4.20;;
5285;SDS011;2665;53.112;7.358;2023-02-13T00:19:37;3.93;;;2.67;;
5285;SDS011;2665;53.112;7.358;2023-02-13T00:22:04;5.90;;;3.27;;
5285;SDS011;2665;53.112;7.358;2023-02-13T00:24:30;5.13;;;3.07;;
5285;SDS011;2665;53.112;7.358;2023-02-13T00:26:56;6.73;;;3.03;;
5285;SDS011;2665;53.112;7.358;2023-02-13T00:29:22;6.37;;;3.70;;
5285;SDS011;2665;53.112;7.358;2023-02-13T00:31:48;5.13;;;3.47;;
5285;SDS011;2665;53.112;7.358;2023-02-13T00:34:14;4.30;;;2.40;;
5285;SDS011;2665;53.112;7.358;2023-02-13T00:36:40;6.37;;;3.90;;
5285;SDS011;2665;53.112;7.358;2023-02-13T00:39:06;6.10;;;3.33;;
5285;SDS011;2665;53.112;7.358;2023-02-13T00:41:33;6.07;;;3.77;;
5285;SDS011;2665;53.112;7.358;2023-02-13T00:43:59;4.30;;;2.53;;
5285;SDS011;2665;53.112;7.358;2023-02-13T00:46:25;6.23;;;3.80;;
5285;SDS011;2665;53.112;7.358;2023-02-13T00:48:51;5.07;;;3.40;;
5285;SDS011;2665;53.112;7.358;2023-02-13T00:51:17;5.93;;;3.27;;
5285;SDS011;2665;53.112;7.358;2023-02-13T00:53:43;4.40;;;3.00;;
5285;SDS011;2665;53.112;7.358;2023-02-13T00:56:09;5.77;;;3.30;;
5285;SDS011;2665;53.112;7.358;2023-02-13T00:58:35;3.90;;;2.50;;
5285;SDS011;2665;53.112;7.358;2023-02-13T01:01:01;4.67;;;3.03;;
5285;SDS011;2665;53.112;7.358;2023-02-13T01:03:27;4.80;;;3.00;;
5285;SDS011;2665;53.112;7.358;2023-02-13T01:05:54;6.97;;;3.77;;
5285;SDS011;2665;53.112;7.358;2023-02-13T01:08:21;6.87;;;3.93;;
5285;SDS011;2665;53.112;7.358;2023-02-13T01:10:47;10.77;;;4.60;;
5285;SDS011;2665;53.112;7.358;2023-02-13T01:13:14;5.37;;;2.83;;
5285;SDS011;2665;53.112;7.358;2023-02-13T01:15:42;4.40;;;3.03;;
5285;SDS011;2665;53.112;7.358;2023-02-13T01:18:08;5.80;;;3.30;;
5285;SDS011;2665;53.112;7.358;2023-02-13T01:20:34;6.47;;;3.40;;
5285;SDS011;2665;53.112;7.358;2023-02-13T01:23:00;7.40;;;3.70;;
5285;SDS011;2665;53.112;7.358;2023-02-13T01:25:27;5.87;;;3.67;;
5285;SDS011;2665;53.112;7.358;2023-02-13T01:27:53;6.17;;;3.17;;
5285;SDS011;2665;53.112;7.358;2023-02-13T01:30:19;5.30;;;3.30;;
5285;SDS011;2665;53.112;7.358;2023-02-13T01:32:45;5.67;;;3.80;;
5285;SDS011;2665;53.112;7.358;2023-02-13T01:35:12;4.27;;;2.80;;
5285;SDS011;2665;53.112;7.358;2023-02-13T01:37:38;12.73;;;7.27;;
5285;SDS011;2665;53.112;7.358;2023-02-13T01:40:05;62.90;;;24.90;;
5285;SDS011;2665;53.112;7.358;2023-02-13T01:42:32;50.43;;;18.23;;
5285;SDS011;2665;53.112;7.358;2023-02-13T01:44:59;31.80;;;11.00;;
5285;SDS011;2665;53.112;7.358;2023-02-13T01:50:41;19.90;;;9.83;;
5285;SDS011;2665;53.112;7.358;2023-02-13T01:52:43;11.97;;;7.10;;
5285;SDS011;2665;53.112;7.358;2023-02-13T01:55:09;14.83;;;7.07;;
5285;SDS011;2665;53.112;7.358;2023-02-13T01:57:37;6.50;;;4.47;;
5285;SDS011;2665;53.112;7.358;2023-02-13T02:00:13;10.73;;;4.97;;
5285;SDS011;2665;53.112;7.358;2023-02-13T02:02:43;7.00;;;4.67;;
5285;SDS011;2665;53.112;7.358;2023-02-13T02:05:10;8.93;;;4.60;;
5285;SDS011;2665;53.112;7.358;2023-02-13T02:07:37;10.00;;;5.33;;
5285;SDS011;2665;53.112;7.358;2023-02-13T02:10:06;5.77;;;3.73;;
5285;SDS011;2665;53.112;7.358;2023-02-13T02:12:49;7.67;;;4.30;;
5285;SDS011;2665;53.112;7.358;2023-02-13T02:15:17;7.60;;;3.77;;
5285;SDS011;2665;53.112;7.358;2023-02-13T02:17:43;7.60;;;4.43;;
5285;SDS011;2665;53.112;7.358;2023-02-13T02:25:28;11.10;;;4.50;;
5285;SDS011;2665;53.112;7.358;2023-02-13T02:46:10;5.40;;;3.53;;
5285;SDS011;2665;53.112;7.358;2023-02-13T02:48:55;6.70;;;3.10;;
5285;SDS011;2665;53.112;7.358;2023-02-13T02:54:14;9.00;;;4.17;;
5285;SDS011;2665;53.112;7.358;2023-02-13T02:57:02;9.40;;;5.00;;
5285;SDS011;2665;53.112;7.358;2023-02-13T02:59:30;10.47;;;5.10;;
5285;SDS011;2665;53.112;7.358;2023-02-13T03:02:16;9.77;;;5.40;;
5285;SDS011;2665;53.112;7.358;2023-02-13T03:05:01;14.93;;;5.80;;
5285;SDS011;2665;53.112;7.358;2023-02-13T03:07:46;11.50;;;6.00;;
5285;SDS011;2665;53.112;7.358;2023-02-13T03:10:22;9.63;;;4.23;;
5285;SDS011;2665;53.112;7.358;2023-02-13T03:13:16;12.30;;;5.33;;
5285;SDS011;2665;53.112;7.358;2023-02-13T03:15:46;10.43;;;5.50;;
5285;SDS011;2665;53.112;7.358;2023-02-13T03:18:33;9.50;;;4.50;;
5285;SDS011;2665;53.112;7.358;2023-02-13T03:24:08;7.23;;;4.33;;
5285;SDS011;2665;53.112;7.358;2023-02-13T03:26:45;9.20;;;5.20;;
5285;SDS011;2665;53.112;7.358;2023-02-13T03:29:19;9.53;;;5.13;;
5285;SDS011;2665;53.112;7.358;2023-02-13T03:32:20;10.63;;;4.80;;
5285;SDS011;2665;53.112;7.358;2023-02-13T03:35:04;7.43;;;4.27;;
5285;SDS011;2665;53.112;7.358;2023-02-13T03:37:51;5.60;;;3.20;;
5285;SDS011;2665;53.112;7.358;2023-02-13T03:42:51;7.47;;;4.33;;
5285;SDS011;2665;53.112;7.358;2023-02-13T03:45:20;7.73;;;3.40;;
5285;SDS011;2665;53.112;7.358;2023-02-13T03:48:06;10.53;;;4.57;;
5285;SDS011;2665;53.112;7.358;2023-02-13T03:50:52;13.37;;;4.57;;
5285;SDS011;2665;53.112;7.358;2023-02-13T03:53:18;12.43;;;5.53;;
5285;SDS011;2665;53.112;7.358;2023-02-13T03:55:44;8.80;;;5.00;;
5285;SDS011;2665;53.112;7.358;2023-02-13T03:58:33;12.00;;;4.93;;
5285;SDS011;2665;53.112;7.358;2023-02-13T04:01:20;8.97;;;4.93;;
5285;SDS011;2665;53.112;7.358;2023-02-13T04:03:55;11.80;;;5.40;;
5285;SDS011;2665;53.112;7.358;2023-02-13T04:06:25;10.00;;;5.50;;
5285;SDS011;2665;53.112;7.358;2023-02-13T04:08:52;8.20;;;5.70;;
5285;SDS011;2665;53.112;7.358;2023-02-13T04:11:24;9.30;;;6.23;;
5285;SDS011;2665;53.112;7.358;2023-02-13T04:13:56;11.13;;;5.50;;
5285;SDS011;2665;53.112;7.358;2023-02-13T04:16:27;10.40;;;5.40;;
5285;SDS011;2665;53.112;7.358;2023-02-13T04:18:55;11.47;;;5.47;;
5285;SDS011;2665;53.112;7.358;2023-02-13T04:21:21;10.17;;;5.13;;
5285;SDS011;2665;53.112;7.358;2023-02-13T04:23:47;12.00;;;5.60;;
5285;SDS011;2665;53.112;7.358;2023-02-13T04:26:15;11.40;;;4.27;;
5285;SDS011;2665;53.112;7.358;2023-02-13T04:28:42;8.07;;;5.00;;
5285;SDS011;2665;53.112;7.358;2023-02-13T04:31:08;10.37;;;5.07;;
5285;SDS011;2665;53.112;7.358;2023-02-13T04:33:34;8.90;;;4.90;;
5285;SDS011;2665;53.112;7.358;2023-02-13T04:36:00;9.10;;;5.77;;
5285;SDS011;2665;53.112;7.358;2023-02-13T04:38:26;10.10;;;6.30;;
5285;SDS011;2665;53.112;7.358;2023-02-13T04:40:52;11.10;;;6.40;;
5285;SDS011;2665;53.112;7.358;2023-02-13T04:43:18;12.40;;;7.17;;
5285;SDS011;2665;53.112;7.358;2023-02-13T04:45:47;9.90;;;5.10;;
5285;SDS011;2665;53.112;7.358;2023-02-13T04:48:13;10.80;;;4.87;;
5285;SDS011;2665;53.112;7.358;2023-02-13T04:50:39;10.67;;;4.57;;
5285;SDS011;2665;53.112;7.358;2023-02-13T04:53:05;11.27;;;6.23;;
5285;SDS011;2665;53.112;7.358;2023-02-13T04:55:31;14.50;;;7.53;;
5285;SDS011;2665;53.112;7.358;2023-02-13T04:57:57;10.00;;;5.10;;
5285;SDS011;2665;53.112;7.358;2023-02-13T05:00:24;10.57;;;5.97;;
5285;SDS011;2665;53.112;7.358;2023-02-13T05:02:51;10.50;;;5.60;;
5285;SDS011;2665;53.112;7.358;2023-02-13T05:05:17;11.13;;;5.80;;
5285;SDS011;2665;53.112;7.358;2023-02-13T05:07:43;10.17;;;6.23;;
5285;SDS011;2665;53.112;7.358;2023-02-13T05:10:10;8.90;;;4.43;;
5285;SDS011;2665;53.112;7.358;2023-02-13T05:12:36;12.77;;;6.03;;
5285;SDS011;2665;53.112;7.358;2023-02-13T05:15:03;13.40;;;6.40;;
5285;SDS011;2665;53.112;7.358;2023-02-13T05:17:29;8.53;;;5.40;;
5285;SDS011;2665;53.112;7.358;2023-02-13T05:19:55;8.50;;;5.30;;
5285;SDS011;2665;53.112;7.358;2023-02-13T05:22:21;8.60;;;5.87;;
5285;SDS011;2665;53.112;7.358;2023-02-13T05:25:06;7.97;;;5.43;;
5285;SDS011;2665;53.112;7.358;2023-02-13T05:27:32;7.63;;;3.83;;
5285;SDS011;2665;53.112;7.358;2023-02-13T05:29:58;9.80;;;4.67;;
5285;SDS011;2665;53.112;7.358;2023-02-13T05:32:24;9.00;;;5.30;;
5285;SDS011;2665;53.112;7.358;2023-02-13T05:34:50;6.60;;;4.33;;
5285;SDS011;2665;53.112;7.358;2023-02-13T05:37:16;10.40;;;4.70;;
5285;SDS011;2665;53.112;7.358;2023-02-13T05:39:42;8.23;;;4.83;;
5285;SDS011;2665;53.112;7.358;2023-02-13T05:42:08;11.20;;;5.80;;
5285;SDS011;2665;53.112;7.358;2023-02-13T05:44:34;10.20;;;5.70;;
5285;SDS011;2665;53.112;7.358;2023-02-13T05:47:00;13.27;;;4.90;;
5285;SDS011;2665;53.112;7.358;2023-02-13T05:49:26;9.00;;;4.50;;
5285;SDS011;2665;53.112;7.358;2023-02-13T05:51:52;6.53;;;4.30;;
5285;SDS011;2665;53.112;7.358;2023-02-13T05:54:18;6.13;;;4.00;;
5285;SDS011;2665;53.112;7.358;2023-02-13T05:56:44;11.10;;;5.33;;
5285;SDS011;2665;53.112;7.358;2023-02-13T05:59:11;6.57;;;4.40;;
5285;SDS011;2665;53.112;7.358;2023-02-13T06:01:37;13.57;;;5.67;;
5285;SDS011;2665;53.112;7.358;2023-02-13T06:04:03;11.20;;;7.03;;
5285;SDS011;2665;53.112;7.358;2023-02-13T06:06:29;9.27;;;4.53;;
5285;SDS011;2665;53.112;7.358;2023-02-13T06:08:55;9.40;;;4.47;;
5285;SDS011;2665;53.112;7.358;2023-02-13T06:11:21;10.40;;;4.73;;
5285;SDS011;2665;53.112;7.358;2023-02-13T06:13:48;10.07;;;5.53;;
5285;SDS011;2665;53.112;7.358;2023-02-13T06:16:14;8.83;;;6.13;;
5285;SDS011;2665;53.112;7.358;2023-02-13T06:18:40;11.70;;;5.03;;
5285;SDS011;2665;53.112;7.358;2023-02-13T06:21:06;8.83;;;4.20;;
5285;SDS011;2665;53.112;7.358;2023-02-13T06:23:32;8.80;;;5.97;;
5285;SDS011;2665;53.112;7.358;2023-02-13T06:26:05;9.23;;;4.70;;
5285;SDS011;2665;53.112;7.358;2023-02-13T06:28:32;8.63;;;4.80;;
5285;SDS011;2665;53.112;7.358;2023-02-13T06:30:58;7.63;;;4.40;;
5285;SDS011;2665;53.112;7.358;2023-02-13T06:33:24;13.20;;;6.00;;
5285;SDS011;2665;53.112;7.358;2023-02-13T06:35:50;14.57;;;7.93;;
5285;SDS011;2665;53.112;7.358;2023-02-13T06:38:16;9.70;;;5.73;;
5285;SDS011;2665;53.112;7.358;2023-02-13T06:40:45;8.17;;;5.67;;
5285;SDS011;2665;53.112;7.358;2023-02-13T06:43:12;6.37;;;4.10;;
5285;SDS011;2665;53.112;7.358;2023-02-13T06:45:37;6.70;;;4.13;;
5285;SDS011;2665;53.112;7.358;2023-02-13T06:48:03;9.87;;;5.23;;
5285;SDS011;2665;53.112;7.358;2023-02-13T06:50:29;8.33;;;4.77;;
5285;SDS011;2665;53.112;7.358;2023-02-13T06:52:54;7.13;;;3.90;;
5285;SDS011;2665;53.112;7.358;2023-02-13T06:55:20;8.70;;;5.10;;
5285;SDS011;2665;53.112;7.358;2023-02-13T06:57:46;10.03;;;3.97;;
5285;SDS011;2665;53.112;7.358;2023-02-13T07:00:12;9.53;;;5.40;;
5285;SDS011;2665;53.112;7.358;2023-02-13T07:02:39;10.27;;;5.90;;
5285;SDS011;2665;53.112;7.358;2023-02-13T07:05:05;8.70;;;5.17;;
5285;SDS011;2665;53.112;7.358;2023-02-13T07:07:32;8.60;;;5.03;;
5285;SDS011;2665;53.112;7.358;2023-02-13T07:09:58;9.17;;;4.97;;
5285;SDS011;2665;53.112;7.358;2023-02-13T07:12:24;9.23;;;4.80;;
5285;SDS011;2665;53.112;7.358;2023-02-13T07:14:49;9.27;;;4.73;;
5285;SDS011;2665;53.112;7.358;2023-02-13T07:17:15;13.83;;;4.40;;
5285;SDS011;2665;53.112;7.358;2023-02-13T07:19:41;9.37;;;5.10;;
5285;SDS011;2665;53.112;7.358;2023-02-13T07:22:06;7.47;;;5.00;;
5285;SDS011;2665;53.112;7.358;2023-02-13T07:24:32;11.30;;;6.80;;
5285;SDS011;2665;53.112;7.358;2023-02-13T07:26:59;10.30;;;4.93;;
5285;SDS011;2665;53.112;7.358;2023-02-13T07:29:25;11.40;;;5.73;;
5285;SDS011;2665;53.112;7.358;2023-02-13T07:31:51;9.00;;;5.37;;
5285;SDS011;2665;53.112;7.358;2023-02-13T07:34:17;11.37;;;7.50;;
5285;SDS011;2665;53.112;7.358;2023-02-13T07:36:42;8.40;;;5.13;;
5285;SDS011;2665;53.112;7.358;2023-02-13T07:39:08;10.80;;;4.93;;
5285;SDS011;2665;53.112;7.358;2023-02-13T07:41:33;10.00;;;5.00;;
5285;SDS011;2665;53.112;7.358;2023-02-13T07:43:59;6.40;;;4.20;;
5285;SDS011;2665;53.112;7.358;2023-02-13T07:46:24;7.03;;;4.43;;
5285;SDS011;2665;53.112;7.358;2023-02-13T07:48:51;8.70;;;4.37;;
5285;SDS011;2665;53.112;7.358;2023-02-13T07:51:16;9.10;;;5.63;;
5285;SDS011;2665;53.112;7.358;2023-02-13T07:53:42;15.33;;;8.00;;
5285;SDS011;2665;53.112;7.358;2023-02-13T07:56:08;10.53;;;5.27;;
5285;SDS011;2665;53.112;7.358;2023-02-13T07:58:36;14.43;;;5.73;;
5285;SDS011;2665;53.112;7.358;2023-02-13T08:01:05;16.10;;;6.00;;
5285;SDS011;2665;53.112;7.358;2023-02-13T08:03:32;7.73;;;5.53;;
5285;SDS011;2665;53.112;7.358;2023-02-13T08:05:58;8.20;;;5.60;;
5285;SDS011;2665;53.112;7.358;2023-02-13T08:08:23;8.83;;;5.40;;
5285;SDS011;2665;53.112;7.358;2023-02-13T08:10:49;11.07;;;6.90;;
5285;SDS011;2665;53.112;7.358;2023-02-13T08:13:33;10.40;;;5.80;;
5285;SDS011;2665;53.112;7.358;2023-02-13T08:15:59;15.03;;;7.27;;
5285;SDS011;2665;53.112;7.358;2023-02-13T08:18:24;14.87;;;8.07;;
5285;SDS011;2665;53.112;7.358;2023-02-13T08:20:50;11.47;;;7.17;;
5285;SDS011;2665;53.112;7.358;2023-02-13T08:23:15;10.60;;;6.00;;
5285;SDS011;2665;53.112;7.358;2023-02-13T08:25:41;13.27;;;7.80;;
5285;SDS011;2665;53.112;7.358;2023-02-13T08:28:07;13.97;;;8.17;;
5285;SDS011;2665;53.112;7.358;2023-02-13T08:30:32;14.93;;;8.20;;
5285;SDS011;2665;53.112;7.358;2023-02-13T08:32:58;14.70;;;8.10;;
5285;SDS011;2665;53.112;7.358;2023-02-13T08:35:24;11.73;;;6.93;;
5285;SDS011;2665;53.112;7.358;2023-02-13T08:37:53;10.90;;;6.50;;
5285;SDS011;2665;53.112;7.358;2023-02-13T08:40:19;16.23;;;8.10;;
5285;SDS011;2665;53.112;7.358;2023-02-13T08:42:45;17.07;;;7.57;;
5285;SDS011;2665;53.112;7.358;2023-02-13T08:45:10;11.70;;;7.07;;
5285;SDS011;2665;53.112;7.358;2023-02-13T08:47:36;10.77;;;5.67;;
5285;SDS011;2665;53.112;7.358;2023-02-13T08:50:03;14.83;;;7.53;;
5285;SDS011;2665;53.112;7.358;2023-02-13T08:52:30;13.50;;;7.33;;
5285;SDS011;2665;53.112;7.358;2023-02-13T08:54:56;12.47;;;6.80;;
5285;SDS011;2665;53.112;7.358;2023-02-13T08:57:21;14.73;;;7.90;;
5285;SDS011;2665;53.112;7.358;2023-02-13T08:59:47;13.87;;;7.03;;
5285;SDS011;2665;53.112;7.358;2023-02-13T09:02:12;16.67;;;9.40;;
5285;SDS011;2665;53.112;7.358;2023-02-13T09:04:38;14.43;;;7.77;;
5285;SDS011;2665;53.112;7.358;2023-02-13T09:07:04;15.13;;;8.10;;
5285;SDS011;2665;53.112;7.358;2023-02-13T09:09:30;16.60;;;7.93;;
5285;SDS011;2665;53.112;7.358;2023-02-13T09:11:55;13.60;;;8.10;;
5285;SDS011;2665;53.112;7.358;2023-02-13T09:14:22;15.27;;;7.50;;
5285;SDS011;2665;53.112;7.358;2023-02-13T09:16:48;13.63;;;8.13;;
5285;SDS011;2665;53.112;7.358;2023-02-13T09:19:14;13.60;;;7.60;;
5285;SDS011;2665;53.112;7.358;2023-02-13T09:21:39;10.83;;;5.93;;
5285;SDS011;2665;53.112;7.358;2023-02-13T09:24:06;13.20;;;7.77;;
5285;SDS011;2665;53.112;7.358;2023-02-13T09:26:32;12.90;;;7.40;;
5285;SDS011;2665;53.112;7.358;2023-02-13T09:28:58;12.00;;;6.97;;
5285;SDS011;2665;53.112;7.358;2023-02-13T09:31:23;13.17;;;7.03;;
5285;SDS011;2665;53.112;7.358;2023-02-13T09:33:49;14.97;;;7.77;;
5285;SDS011;2665;53.112;7.358;2023-02-13T09:36:16;11.10;;;6.80;;
5285;SDS011;2665;53.112;7.358;2023-02-13T09:38:46;11.53;;;6.37;;
5285;SDS011;2665;53.112;7.358;2023-02-13T09:41:27;10.73;;;6.87;;
5285;SDS011;2665;53.112;7.358;2023-02-13T09:46:37;17.63;;;9.70;;
5285;SDS011;2665;53.112;7.358;2023-02-13T09:49:10;12.20;;;7.73;;
5285;SDS011;2665;53.112;7.358;2023-02-13T09:51:43;16.30;;;8.20;;
5285;SDS011;2665;53.112;7.358;2023-02-13T09:54:13;16.10;;;8.97;;
5285;SDS011;2665;53.112;7.358;2023-02-13T09:56:47;15.40;;;7.73;;
5285;SDS011;2665;53.112;7.358;2023-02-13T09:59:48;14.33;;;8.40;;
5285;SDS011;2665;53.112;7.358;2023-02-13T10:08:26;14.80;;;8.00;;
5285;SDS011;2665;53.112;7.358;2023-02-13T10:11:13;16.10;;;8.90;;
5285;SDS011;2665;53.112;7.358;2023-02-13T10:19:34;14.10;;;7.23;;
5285;SDS011;2665;53.112;7.358;2023-02-13T10:22:16;13.13;;;7.73;;
5285;SDS011;2665;53.112;7.358;2023-02-13T10:25:14;14.53;;;8.33;;
5285;SDS011;2665;53.112;7.358;2023-02-13T10:28:05;15.20;;;8.50;;
5285;SDS011;2665;53.112;7.358;2023-02-13T10:30:50;13.50;;;7.80;;
5285;SDS011;2665;53.112;7.358;2023-02-13T10:33:20;12.10;;;7.57;;
5285;SDS011;2665;53.112;7.358;2023-02-13T10:38:34;12.93;;;7.37;;
5285;SDS011;2665;53.112;7.358;2023-02-13T10:41:27;12.87;;;6.93;;
5285;SDS011;2665;53.112;7.358;2023-02-13T10:47:14;13.70;;;6.60;;
5285;SDS011;2665;53.112;7.358;2023-02-13T10:49:54;14.90;;;8.07;;
5285;SDS011;2665;53.112;7.358;2023-02-13T10:55:03;10.57;;;6.50;;
5285;SDS011;2665;53.112;7.358;2023-02-13T11:00:26;14.90;;;7.10;;
5285;SDS011;2665;53.112;7.358;2023-02-13T11:03:27;14.10;;;6.70;;
5285;SDS011;2665;53.112;7.358;2023-02-13T11:05:54;11.57;;;5.90;;
5285;SDS011;2665;53.112;7.358;2023-02-13T11:10:49;9.40;;;5.60;;
5285;SDS011;2665;53.112;7.358;2023-02-13T11:13:19;11.27;;;6.87;;
5285;SDS011;2665;53.112;7.358;2023-02-13T11:18:38;11.57;;;6.03;;
5285;SDS011;2665;53.112;7.358;2023-02-13T11:21:09;12.63;;;6.20;;
5285;SDS011;2665;53.112;7.358;2023-02-13T11:23:43;16.63;;;8.47;;
5285;SDS011;2665;53.112;7.358;2023-02-13T11:26:14;12.90;;;7.00;;
5285;SDS011;2665;53.112;7.358;2023-02-13T11:29:05;9.90;;;6.07;;
5285;SDS011;2665;53.112;7.358;2023-02-13T11:31:41;9.87;;;6.03;;
5285;SDS011;2665;53.112;7.358;2023-02-13T11:34:26;12.47;;;7.50;;
5285;SDS011;2665;53.112;7.358;2023-02-13T11:37:07;15.63;;;6.67;;
5285;SDS011;2665;53.112;7.358;2023-02-13T11:39:38;12.13;;;6.57;;
5285;SDS011;2665;53.112;7.358;2023-02-13T11:42:14;11.83;;;6.30;;
5285;SDS011;2665;53.112;7.358;2023-02-13T11:45:00;10.13;;;5.30;;
5285;SDS011;2665;53.112;7.358;2023-02-13T11:47:31;12.00;;;6.83;;
5285;SDS011;2665;53.112;7.358;2023-02-13T11:49:57;9.60;;;5.67;;
5285;SDS011;2665;53.112;7.358;2023-02-13T11:52:27;15.63;;;6.60;;
5285;SDS011;2665;53.112;7.358;2023-02-13T11:55:23;8.40;;;5.03;;
5285;SDS011;2665;53.112;7.358;2023-02-13T11:57:55;11.33;;;5.77;;
5285;SDS011;2665;53.112;7.358;2023-02-13T12:00:33;11.83;;;5.93;;
5285;SDS011;2665;53.112;7.358;2023-02-13T12:05:57;11.00;;;5.90;;
5285;SDS011;2665;53.112;7.358;2023-02-13T12:08:25;12.90;;;6.60;;
5285;SDS011;2665;53.112;7.358;2023-02-13T12:10:51;11.97;;;6.20;;
5285;SDS011;2665;53.112;7.358;2023-02-13T12:13:36;11.63;;;6.03;;
5285;SDS011;2665;53.112;7.358;2023-02-13T12:16:09;12.50;;;6.93;;
5285;SDS011;2665;53.112;7.358;2023-02-13T12:18:43;11.00;;;5.40;;
5285;SDS011;2665;53.112;7.358;2023-02-13T12:37:59;10.30;;;6.43;;
5285;SDS011;2665;53.112;7.358;2023-02-13T12:45:40;11.40;;;6.07;;
5285;SDS011;2665;53.112;7.358;2023-02-13T13:12:56;13.50;;;6.83;;
5285;SDS011;2665;53.112;7.358;2023-02-13T13:26:33;11.60;;;7.23;;
5285;SDS011;2665;53.112;7.358;2023-02-13T13:29:28;8.13;;;5.03;;
5285;SDS011;2665;53.112;7.358;2023-02-13T13:32:05;14.43;;;7.10;;
5285;SDS011;2665;53.112;7.358;2023-02-13T13:34:33;14.27;;;7.60;;
5285;SDS011;2665;53.112;7.358;2023-02-13T13:42:55;11.90;;;6.90;;
5285;SDS011;2665;53.112;7.358;2023-02-13T13:45:32;12.67;;;6.77;;
5285;SDS011;2665;53.112;7.358;2023-02-13T13:51:05;12.57;;;7.20;;
5285;SDS011;2665;53.112;7.358;2023-02-13T13:53:31;12.33;;;6.80;;
5285;SDS011;2665;53.112;7.358;2023-02-13T13:55:58;13.33;;;8.10;;
5285;SDS011;2665;53.112;7.358;2023-02-13T14:11:51;11.00;;;6.73;;
5285;SDS011;2665;53.112;7.358;2023-02-13T14:16:53;14.90;;;7.63;;
5285;SDS011;2665;53.112;7.358;2023-02-13T14:19:25;16.40;;;8.37;;
5285;SDS011;2665;53.112;7.358;2023-02-13T14:25:02;16.23;;;8.57;;
5285;SDS011;2665;53.112;7.358;2023-02-13T14:27:51;16.80;;;7.60;;
5285;SDS011;2665;53.112;7.358;2023-02-13T14:33:00;15.60;;;7.10;;
5285;SDS011;2665;53.112;7.358;2023-02-13T14:35:30;11.57;;;6.17;;
5285;SDS011;2665;53.112;7.358;2023-02-13T14:37:59;12.97;;;6.50;;
5285;SDS011;2665;53.112;7.358;2023-02-13T14:45:46;11.87;;;7.60;;
5285;SDS011;2665;53.112;7.358;2023-02-13T14:49:13;11.40;;;5.97;;
5285;SDS011;2665;53.112;7.358;2023-02-13T14:51:49;13.73;;;6.83;;
5285;SDS011;2665;53.112;7.358;2023-02-13T14:57:09;10.90;;;6.77;;
5285;SDS011;2665;53.112;7.358;2023-02-13T14:59:52;10.17;;;5.90;;
5285;SDS011;2665;53.112;7.358;2023-02-13T15:02:38;12.90;;;5.23;;
5285;SDS011;2665;53.112;7.358;2023-02-13T15:05:13;19.47;;;8.83;;
5285;SDS011;2665;53.112;7.358;2023-02-13T15:07:48;11.30;;;6.00;;
5285;SDS011;2665;53.112;7.358;2023-02-13T15:13:00;15.43;;;8.53;;
5285;SDS011;2665;53.112;7.358;2023-02-13T15:15:27;11.53;;;7.17;;
5285;SDS011;2665;53.112;7.358;2023-02-13T15:18:03;13.33;;;7.97;;
5285;SDS011;2665;53.112;7.358;2023-02-13T15:20:35;12.40;;;8.03;;
5285;SDS011;2665;53.112;7.358;2023-02-13T15:23:03;14.73;;;8.70;;
5285;SDS011;2665;53.112;7.358;2023-02-13T15:25:37;13.50;;;7.63;;
5285;SDS011;2665;53.112;7.358;2023-02-13T15:28:05;11.53;;;6.43;;
5285;SDS011;2665;53.112;7.358;2023-02-13T15:30:52;16.13;;;8.17;;
5285;SDS011;2665;53.112;7.358;2023-02-13T15:33:23;16.60;;;7.07;;
5285;SDS011;2665;53.112;7.358;2023-02-13T15:35:58;11.43;;;7.00;;
5285;SDS011;2665;53.112;7.358;2023-02-13T15:38:27;12.53;;;6.10;;
5285;SDS011;2665;53.112;7.358;2023-02-13T15:40:58;18.43;;;7.53;;
5285;SDS011;2665;53.112;7.358;2023-02-13T15:43:31;10.10;;;6.70;;
5285;SDS011;2665;53.112;7.358;2023-02-13T15:46:01;14.33;;;7.27;;
5285;SDS011;2665;53.112;7.358;2023-02-13T15:48:30;15.37;;;8.20;;
5285;SDS011;2665;53.112;7.358;2023-02-13T15:50:58;13.17;;;6.97;;
5285;SDS011;2665;53.112;7.358;2023-02-13T15:53:25;14.47;;;6.70;;
5285;SDS011;2665;53.112;7.358;2023-02-13T15:55:58;13.57;;;7.20;;
5285;SDS011;2665;53.112;7.358;2023-02-13T15:58:35;12.73;;;7.33;;
5285;SDS011;2665;53.112;7.358;2023-02-13T16:01:04;17.73;;;7.73;;
5285;SDS011;2665;53.112;7.358;2023-02-13T16:03:32;14.17;;;8.53;;
5285;SDS011;2665;53.112;7.358;2023-02-13T16:05:59;14.47;;;7.70;;
5285;SDS011;2665;53.112;7.358;2023-02-13T16:08:26;14.07;;;8.47;;
5285;SDS011;2665;53.112;7.358;2023-02-13T16:11:16;15.60;;;9.13;;
5285;SDS011;2665;53.112;7.358;2023-02-13T16:16:56;19.23;;;9.70;;
5285;SDS011;2665;53.112;7.358;2023-02-13T16:19:38;26.27;;;12.90;;
5285;SDS011;2665;53.112;7.358;2023-02-13T16:25:09;31.10;;;16.50;;
5285;SDS011;2665;53.112;7.358;2023-02-13T16:27:45;16.67;;;10.20;;
5285;SDS011;2665;53.112;7.358;2023-02-13T16:32:49;16.60;;;8.90;;
5285;SDS011;2665;53.112;7.358;2023-02-13T16:35:28;18.47;;;9.93;;
5285;SDS011;2665;53.112;7.358;2023-02-13T16:38:03;18.63;;;9.13;;
5285;SDS011;2665;53.112;7.358;2023-02-13T16:40:42;16.27;;;8.80;;
5285;SDS011;2665;53.112;7.358;2023-02-13T16:46:12;17.53;;;9.43;;
5285;SDS011;2665;53.112;7.358;2023-02-13T16:56:41;15.03;;;7.20;;
5285;SDS011;2665;53.112;7.358;2023-02-13T17:02:00;14.53;;;7.23;;
5285;SDS011;2665;53.112;7.358;2023-02-13T17:04:36;13.43;;;7.67;;
5285;SDS011;2665;53.112;7.358;2023-02-13T17:07:03;13.30;;;7.13;;
5285;SDS011;2665;53.112;7.358;2023-02-13T17:09:29;15.83;;;6.87;;
5285;SDS011;2665;53.112;7.358;2023-02-13T17:11:55;12.63;;;6.93;;
5285;SDS011;2665;53.112;7.358;2023-02-13T17:14:21;14.27;;;6.90;;
5285;SDS011;2665;53.112;7.358;2023-02-13T17:16:46;14.13;;;6.83;;
5285;SDS011;2665;53.112;7.358;2023-02-13T17:19:12;16.90;;;7.27;;
5285;SDS011;2665;53.112;7.358;2023-02-13T17:21:38;12.43;;;6.43;;
5285;SDS011;2665;53.112;7.358;2023-02-13T17:24:05;12.47;;;7.40;;
5285;SDS011;2665;53.112;7.358;2023-02-13T17:26:32;9.63;;;5.20;;
5285;SDS011;2665;53.112;7.358;2023-02-13T17:28:58;10.03;;;6.07;;
5285;SDS011;2665;53.112;7.358;2023-02-13T17:31:23;12.37;;;6.87;;
5285;SDS011;2665;53.112;7.358;2023-02-13T17:33:49;14.60;;;6.20;;
5285;SDS011;2665;53.112;7.358;2023-02-13T17:36:15;12.00;;;6.00;;
5285;SDS011;2665;53.112;7.358;2023-02-13T17:38:40;13.07;;;6.87;;
5285;SDS011;2665;53.112;7.358;2023-02-13T17:41:10;12.83;;;6.13;;
5285;SDS011;2665;53.112;7.358;2023-02-13T17:43:40;9.97;;;5.70;;
5285;SDS011;2665;53.112;7.358;2023-02-13T17:46:06;13.30;;;5.83;;
5285;SDS011;2665;53.112;7.358;2023-02-13T17:48:32;10.40;;;5.80;;
5285;SDS011;2665;53.112;7.358;2023-02-13T17:50:58;10.80;;;6.67;;
5285;SDS011;2665;53.112;7.358;2023-02-13T17:53:25;17.87;;;7.53;;
5285;SDS011;2665;53.112;7.358;2023-02-13T17:55:54;14.20;;;6.60;;
5285;SDS011;2665;53.112;7.358;2023-02-13T17:58:20;9.23;;;6.10;;
5285;SDS011;2665;53.112;7.358;2023-02-13T18:00:45;18.10;;;9.30;;
5285;SDS011;2665;53.112;7.358;2023-02-13T18:03:11;13.60;;;6.57;;
5285;SDS011;2665;53.112;7.358;2023-02-13T18:05:37;19.33;;;9.30;;
5285;SDS011;2665;53.112;7.358;2023-02-13T18:08:03;14.60;;;7.00;;
5285;SDS011;2665;53.112;7.358;2023-02-13T18:10:30;16.27;;;7.27;;
5285;SDS011;2665;53.112;7.358;2023-02-13T18:12:57;15.40;;;8.17;;
5285;SDS011;2665;53.112;7.358;2023-02-13T18:15:28;15.77;;;9.50;;
5285;SDS011;2665;53.112;7.358;2023-02-13T18:17:55;30.93;;;13.00;;
5285;SDS011;2665;53.112;7.358;2023-02-13T18:20:20;20.23;;;10.10;;
5285;SDS011;2665;53.112;7.358;2023-02-13T18:22:46;22.03;;;11.20;;
5285;SDS011;2665;53.112;7.358;2023-02-13T18:25:14;26.10;;;10.27;;
5285;SDS011;2665;53.112;7.358;2023-02-13T18:27:40;23.50;;;11.20;;
5285;SDS011;2665;53.112;7.358;2023-02-13T18:30:07;15.80;;;8.73;;
5285;SDS011;2665;53.112;7.358;2023-02-13T18:32:34;15.70;;;8.53;;